sensor_id;sensor_type;location;lat;lon;timestamp;P1;durP1;ratioP1;P2;durP2;ratioP2
15171;SDS011;7686;52.184;9.280;2023-03-07T00:00:44;0.77;;;0.70;;
15171;SDS011;7686;52.184;9.280;2023-03-07T00:03:11;0.60;;;0.60;;
15171;SDS011;7686;52.184;9.280;2023-03-07T00:05:42;0.90;;;0.70;;
15171;SDS011;7686;52.184;9.280;2023-03-07T00:08:09;1.38;;;0.80;;
15171;SDS011;7686;52.184;9.280;2023-03-07T00:10:37;0.68;;;0.68;;
15171;SDS011;7686;52.184;9.280;2023-03-07T00:13:03;1.15;;;0.73;;
15171;SDS011;7686;52.184;9.280;2023-03-07T00:15:30;0.63;;;0.63;;
15171;SDS011;7686;52.184;9.280;2023-03-07T00:17:57;0.70;;;0.70;;
15171;SDS011;7686;52.184;9.280;2023-03-07T00:20:23;0.77;;;0.70;;
15171;SDS011;7686;52.184;9.280;2023-03-07T00:22:50;0.60;;;0.60;;
15171;SDS011;7686;52.184;9.280;2023-03-07T00:25:17;1.30;;;0.80;;
15171;SDS011;7686;52.184;9.280;2023-03-07T00:27:43;0.80;;;0.65;;
15171;SDS011;7686;52.184;9.280;2023-03-07T00:30:10;0.55;;;0.55;;
15171;SDS011;7686;52.184;9.280;2023-03-07T00:32:39;0.80;;;0.70;;
15171;SDS011;7686;52.184;9.280;2023-03-07T00:35:06;0.90;;;0.70;;
15171;SDS011;7686;52.184;9.280;2023-03-07T00:37:33;1.38;;;0.80;;
15171;SDS011;7686;52.184;9.280;2023-03-07T00:39:59;0.70;;;0.70;;
15171;SDS011;7686;52.184;9.280;2023-03-07T00:42:26;1.08;;;0.70;;
15171;SDS011;7686;52.184;9.280;2023-03-07T00:44:53;1.17;;;0.73;;
15171;SDS011;7686;52.184;9.280;2023-03-07T00:47:21;1.08;;;0.80;;
15171;SDS011;7686;52.184;9.280;2023-03-07T00:49:47;0.68;;;0.68;;
15171;SDS011;7686;52.184;9.280;2023-03-07T00:52:14;1.02;;;0.75;;
15171;SDS011;7686;52.184;9.280;2023-03-07T00:54:40;0.50;;;0.50;;
15171;SDS011;7686;52.184;9.280;2023-03-07T00:57:07;1.10;;;0.77;;
15171;SDS011;7686;52.184;9.280;2023-03-07T00:59:33;0.70;;;0.70;;
15171;SDS011;7686;52.184;9.280;2023-03-07T01:02:00;1.63;;;0.75;;
15171;SDS011;7686;52.184;9.280;2023-03-07T01:04:26;0.68;;;0.68;;
15171;SDS011;7686;52.184;9.280;2023-03-07T01:06:53;1.15;;;0.60;;
15171;SDS011;7686;52.184;9.280;2023-03-07T01:09:20;0.50;;;0.50;;
15171;SDS011;7686;52.184;9.280;2023-03-07T01:11:48;0.85;;;0.73;;
15171;SDS011;7686;52.184;9.280;2023-03-07T01:14:15;1.00;;;0.70;;
15171;SDS011;7686;52.184;9.280;2023-03-07T01:16:41;0.70;;;0.70;;
15171;SDS011;7686;52.184;9.280;2023-03-07T01:19:08;0.70;;;0.70;;
15171;SDS011;7686;52.184;9.280;2023-03-07T01:21:38;0.82;;;0.60;;
15171;SDS011;7686;52.184;9.280;2023-03-07T01:24:07;0.60;;;0.60;;
15171;SDS011;7686;52.184;9.280;2023-03-07T01:26:35;0.85;;;0.70;;
15171;SDS011;7686;52.184;9.280;2023-03-07T01:29:03;0.70;;;0.65;;
15171;SDS011;7686;52.184;9.280;2023-03-07T01:31:32;0.70;;;0.70;;
15171;SDS011;7686;52.184;9.280;2023-03-07T01:33:59;0.85;;;0.65;;
15171;SDS011;7686;52.184;9.280;2023-03-07T01:36:28;0.60;;;0.60;;
15171;SDS011;7686;52.184;9.280;2023-03-07T01:39:02;0.70;;;0.70;;
15171;SDS011;7686;52.184;9.280;2023-03-07T01:41:32;0.70;;;0.70;;
15171;SDS011;7686;52.184;9.280;2023-03-07T01:44:00;0.63;;;0.63;;
15171;SDS011;7686;52.184;9.280;2023-03-07T01:46:41;0.70;;;0.70;;
15171;SDS011;7686;52.184;9.280;2023-03-07T01:52:09;0.75;;;0.75;;
15171;SDS011;7686;52.184;9.280;2023-03-07T01:54:41;0.50;;;0.50;;
15171;SDS011;7686;52.184;9.280;2023-03-07T01:57:15;0.60;;;0.57;;
15171;SDS011;7686;52.184;9.280;2023-03-07T01:59:45;0.60;;;0.60;;
15171;SDS011;7686;52.184;9.280;2023-03-07T02:02:16;0.70;;;0.60;;
15171;SDS011;7686;52.184;9.280;2023-03-07T02:04:56;0.60;;;0.60;;
15171;SDS011;7686;52.184;9.280;2023-03-07T02:07:32;0.63;;;0.63;;
15171;SDS011;7686;52.184;9.280;2023-03-07T02:10:04;0.60;;;0.60;;
15171;SDS011;7686;52.184;9.280;2023-03-07T02:12:31;1.05;;;0.60;;
15171;SDS011;7686;52.184;9.280;2023-03-07T02:14:59;0.50;;;0.50;;
15171;SDS011;7686;52.184;9.280;2023-03-07T02:17:26;0.50;;;0.50;;
15171;SDS011;7686;52.184;9.280;2023-03-07T02:20:08;0.50;;;0.50;;
15171;SDS011;7686;52.184;9.280;2023-03-07T02:22:37;0.70;;;0.50;;
15171;SDS011;7686;52.184;9.280;2023-03-07T02:25:19;0.65;;;0.60;;
15171;SDS011;7686;52.184;9.280;2023-03-07T02:27:48;0.63;;;0.63;;
15171;SDS011;7686;52.184;9.280;2023-03-07T02:30:18;0.75;;;0.63;;
15171;SDS011;7686;52.184;9.280;2023-03-07T02:32:44;0.77;;;0.60;;
15171;SDS011;7686;52.184;9.280;2023-03-07T02:35:18;0.70;;;0.70;;
15171;SDS011;7686;52.184;9.280;2023-03-07T02:37:48;0.68;;;0.52;;
15171;SDS011;7686;52.184;9.280;2023-03-07T02:40:21;1.00;;;0.60;;
15171;SDS011;7686;52.184;9.280;2023-03-07T02:42:50;0.57;;;0.55;;
15171;SDS011;7686;52.184;9.280;2023-03-07T02:45:19;0.60;;;0.60;;
15171;SDS011;7686;52.184;9.280;2023-03-07T02:47:46;0.45;;;0.45;;
15171;SDS011;7686;52.184;9.280;2023-03-07T02:50:13;0.65;;;0.60;;
15171;SDS011;7686;52.184;9.280;2023-03-07T02:52:40;1.85;;;0.60;;
15171;SDS011;7686;52.184;9.280;2023-03-07T02:55:07;0.55;;;0.55;;
15171;SDS011;7686;52.184;9.280;2023-03-07T02:57:34;0.77;;;0.70;;
15171;SDS011;7686;52.184;9.280;2023-03-07T03:00:01;0.93;;;0.60;;
15171;SDS011;7686;52.184;9.280;2023-03-07T03:02:31;0.70;;;0.60;;
15171;SDS011;7686;52.184;9.280;2023-03-07T03:04:58;0.60;;;0.60;;
15171;SDS011;7686;52.184;9.280;2023-03-07T03:07:25;1.55;;;0.57;;
15171;SDS011;7686;52.184;9.280;2023-03-07T03:09:51;1.25;;;0.50;;
15171;SDS011;7686;52.184;9.280;2023-03-07T03:12:18;0.50;;;0.50;;
15171;SDS011;7686;52.184;9.280;2023-03-07T03:14:45;0.63;;;0.60;;
15171;SDS011;7686;52.184;9.280;2023-03-07T03:17:11;0.95;;;0.68;;
15171;SDS011;7686;52.184;9.280;2023-03-07T03:19:38;0.60;;;0.60;;
15171;SDS011;7686;52.184;9.280;2023-03-07T03:22:04;0.55;;;0.47;;
15171;SDS011;7686;52.184;9.280;2023-03-07T03:24:31;0.50;;;0.50;;
15171;SDS011;7686;52.184;9.280;2023-03-07T03:26:58;0.50;;;0.50;;
15171;SDS011;7686;52.184;9.280;2023-03-07T03:29:25;0.60;;;0.60;;
15171;SDS011;7686;52.184;9.280;2023-03-07T03:31:52;0.50;;;0.50;;
15171;SDS011;7686;52.184;9.280;2023-03-07T03:34:18;0.52;;;0.50;;
15171;SDS011;7686;52.184;9.280;2023-03-07T03:36:45;0.52;;;0.50;;
15171;SDS011;7686;52.184;9.280;2023-03-07T03:39:12;1.15;;;0.63;;
15171;SDS011;7686;52.184;9.280;2023-03-07T03:41:39;0.50;;;0.50;;
15171;SDS011;7686;52.184;9.280;2023-03-07T03:44:06;0.60;;;0.60;;
15171;SDS011;7686;52.184;9.280;2023-03-07T03:46:34;0.50;;;0.50;;
15171;SDS011;7686;52.184;9.280;2023-03-07T03:49:01;0.50;;;0.50;;
15171;SDS011;7686;52.184;9.280;2023-03-07T03:51:28;0.85;;;0.60;;
15171;SDS011;7686;52.184;9.280;2023-03-07T03:53:56;1.13;;;0.65;;
15171;SDS011;7686;52.184;9.280;2023-03-07T03:56:24;1.45;;;0.70;;
15171;SDS011;7686;52.184;9.280;2023-03-07T03:58:52;0.60;;;0.60;;
15171;SDS011;7686;52.184;9.280;2023-03-07T04:01:21;0.57;;;0.57;;
15171;SDS011;7686;52.184;9.280;2023-03-07T04:03:49;0.47;;;0.47;;
15171;SDS011;7686;52.184;9.280;2023-03-07T04:06:18;0.75;;;0.60;;
15171;SDS011;7686;52.184;9.280;2023-03-07T04:08:47;1.20;;;0.70;;
15171;SDS011;7686;52.184;9.280;2023-03-07T04:11:14;0.65;;;0.60;;
15171;SDS011;7686;52.184;9.280;2023-03-07T04:13:40;0.73;;;0.60;;
15171;SDS011;7686;52.184;9.280;2023-03-07T04:16:07;0.60;;;0.60;;
15171;SDS011;7686;52.184;9.280;2023-03-07T04:18:34;0.45;;;0.45;;
15171;SDS011;7686;52.184;9.280;2023-03-07T04:21:01;0.63;;;0.63;;
15171;SDS011;7686;52.184;9.280;2023-03-07T04:23:30;0.65;;;0.65;;
15171;SDS011;7686;52.184;9.280;2023-03-07T04:25:59;0.57;;;0.57;;
15171;SDS011;7686;52.184;9.280;2023-03-07T04:28:28;0.50;;;0.50;;
15171;SDS011;7686;52.184;9.280;2023-03-07T04:31:16;0.55;;;0.50;;
15171;SDS011;7686;52.184;9.280;2023-03-07T04:33:45;0.45;;;0.45;;
15171;SDS011;7686;52.184;9.280;2023-03-07T04:36:12;0.50;;;0.50;;
15171;SDS011;7686;52.184;9.280;2023-03-07T04:38:41;0.75;;;0.50;;
15171;SDS011;7686;52.184;9.280;2023-03-07T04:41:10;0.40;;;0.40;;
15171;SDS011;7686;52.184;9.280;2023-03-07T04:43:39;0.50;;;0.50;;
15171;SDS011;7686;52.184;9.280;2023-03-07T04:46:06;0.60;;;0.60;;
15171;SDS011;7686;52.184;9.280;2023-03-07T04:48:33;0.50;;;0.50;;
15171;SDS011;7686;52.184;9.280;2023-03-07T04:51:00;0.40;;;0.40;;
15171;SDS011;7686;52.184;9.280;2023-03-07T04:53:27;0.70;;;0.70;;
15171;SDS011;7686;52.184;9.280;2023-03-07T04:55:57;0.50;;;0.50;;
15171;SDS011;7686;52.184;9.280;2023-03-07T04:58:28;0.52;;;0.50;;
15171;SDS011;7686;52.184;9.280;2023-03-07T05:00:56;0.55;;;0.55;;
15171;SDS011;7686;52.184;9.280;2023-03-07T05:03:25;0.63;;;0.50;;
15171;SDS011;7686;52.184;9.280;2023-03-07T05:05:52;1.40;;;0.43;;
15171;SDS011;7686;52.184;9.280;2023-03-07T05:08:20;0.43;;;0.43;;
15171;SDS011;7686;52.184;9.280;2023-03-07T05:10:47;0.50;;;0.50;;
15171;SDS011;7686;52.184;9.280;2023-03-07T05:13:14;0.65;;;0.60;;
15171;SDS011;7686;52.184;9.280;2023-03-07T05:15:41;0.60;;;0.60;;
15171;SDS011;7686;52.184;9.280;2023-03-07T05:18:07;0.60;;;0.60;;
15171;SDS011;7686;52.184;9.280;2023-03-07T05:20:34;0.40;;;0.40;;
15171;SDS011;7686;52.184;9.280;2023-03-07T05:23:00;0.73;;;0.60;;
15171;SDS011;7686;52.184;9.280;2023-03-07T05:25:27;0.50;;;0.50;;
15171;SDS011;7686;52.184;9.280;2023-03-07T05:27:54;0.47;;;0.47;;
15171;SDS011;7686;52.184;9.280;2023-03-07T05:30:20;0.40;;;0.40;;
15171;SDS011;7686;52.184;9.280;2023-03-07T05:32:47;0.65;;;0.50;;
15171;SDS011;7686;52.184;9.280;2023-03-07T05:35:14;0.60;;;0.60;;
15171;SDS011;7686;52.184;9.280;2023-03-07T05:37:41;0.73;;;0.70;;
15171;SDS011;7686;52.184;9.280;2023-03-07T05:40:08;1.23;;;0.60;;
15171;SDS011;7686;52.184;9.280;2023-03-07T05:42:36;0.60;;;0.50;;
15171;SDS011;7686;52.184;9.280;2023-03-07T05:45:03;1.90;;;0.60;;
15171;SDS011;7686;52.184;9.280;2023-03-07T05:47:30;1.15;;;0.80;;
15171;SDS011;7686;52.184;9.280;2023-03-07T05:49:57;0.88;;;0.60;;
15171;SDS011;7686;52.184;9.280;2023-03-07T05:52:24;0.63;;;0.60;;
15171;SDS011;7686;52.184;9.280;2023-03-07T05:54:51;0.70;;;0.55;;
15171;SDS011;7686;52.184;9.280;2023-03-07T05:57:18;0.85;;;0.68;;
15171;SDS011;7686;52.184;9.280;2023-03-07T05:59:45;0.93;;;0.60;;
15171;SDS011;7686;52.184;9.280;2023-03-07T06:02:11;0.98;;;0.60;;
15171;SDS011;7686;52.184;9.280;2023-03-07T06:04:38;0.82;;;0.60;;
15171;SDS011;7686;52.184;9.280;2023-03-07T06:07:05;5.30;;;1.00;;
15171;SDS011;7686;52.184;9.280;2023-03-07T06:09:31;1.77;;;0.60;;
15171;SDS011;7686;52.184;9.280;2023-03-07T06:11:58;0.60;;;0.60;;
15171;SDS011;7686;52.184;9.280;2023-03-07T06:14:24;2.25;;;0.60;;
15171;SDS011;7686;52.184;9.280;2023-03-07T06:16:51;0.60;;;0.60;;
15171;SDS011;7686;52.184;9.280;2023-03-07T06:19:18;1.75;;;0.63;;
15171;SDS011;7686;52.184;9.280;2023-03-07T06:21:44;1.15;;;0.70;;
15171;SDS011;7686;52.184;9.280;2023-03-07T06:24:11;1.55;;;0.70;;
15171;SDS011;7686;52.184;9.280;2023-03-07T06:26:37;4.28;;;0.60;;
15171;SDS011;7686;52.184;9.280;2023-03-07T06:29:04;1.10;;;0.70;;
15171;SDS011;7686;52.184;9.280;2023-03-07T06:31:31;2.63;;;0.80;;
15171;SDS011;7686;52.184;9.280;2023-03-07T06:33:57;1.77;;;0.73;;
15171;SDS011;7686;52.184;9.280;2023-03-07T06:36:24;0.80;;;0.52;;
15171;SDS011;7686;52.184;9.280;2023-03-07T06:38:51;0.90;;;0.68;;
15171;SDS011;7686;52.184;9.280;2023-03-07T06:41:17;1.40;;;0.73;;
15171;SDS011;7686;52.184;9.280;2023-03-07T06:43:44;4.22;;;0.70;;
15171;SDS011;7686;52.184;9.280;2023-03-07T06:46:10;1.50;;;0.70;;
15171;SDS011;7686;52.184;9.280;2023-03-07T06:48:37;1.85;;;0.73;;
15171;SDS011;7686;52.184;9.280;2023-03-07T06:51:07;2.53;;;0.80;;
15171;SDS011;7686;52.184;9.280;2023-03-07T06:53:35;1.02;;;0.57;;
15171;SDS011;7686;52.184;9.280;2023-03-07T06:56:02;2.28;;;0.70;;
15171;SDS011;7686;52.184;9.280;2023-03-07T06:58:29;0.98;;;0.60;;
15171;SDS011;7686;52.184;9.280;2023-03-07T07:00:55;1.95;;;0.70;;
15171;SDS011;7686;52.184;9.280;2023-03-07T07:03:22;1.85;;;0.80;;
15171;SDS011;7686;52.184;9.280;2023-03-07T07:05:49;1.75;;;0.70;;
15171;SDS011;7686;52.184;9.280;2023-03-07T07:08:16;1.70;;;0.70;;
15171;SDS011;7686;52.184;9.280;2023-03-07T07:10:43;1.20;;;0.70;;
15171;SDS011;7686;52.184;9.280;2023-03-07T07:13:10;1.83;;;0.80;;
15171;SDS011;7686;52.184;9.280;2023-03-07T07:15:37;2.22;;;0.68;;
15171;SDS011;7686;52.184;9.280;2023-03-07T07:18:04;1.23;;;0.70;;
15171;SDS011;7686;52.184;9.280;2023-03-07T07:20:30;1.60;;;0.80;;
15171;SDS011;7686;52.184;9.280;2023-03-07T07:22:57;1.80;;;0.70;;
15171;SDS011;7686;52.184;9.280;2023-03-07T07:25:24;1.05;;;0.70;;
15171;SDS011;7686;52.184;9.280;2023-03-07T07:27:50;2.03;;;0.63;;
15171;SDS011;7686;52.184;9.280;2023-03-07T07:30:17;1.63;;;0.80;;
15171;SDS011;7686;52.184;9.280;2023-03-07T07:32:43;0.88;;;0.47;;
15171;SDS011;7686;52.184;9.280;2023-03-07T07:35:10;2.63;;;0.73;;
15171;SDS011;7686;52.184;9.280;2023-03-07T07:37:37;2.13;;;0.68;;
15171;SDS011;7686;52.184;9.280;2023-03-07T07:40:05;1.00;;;0.60;;
15171;SDS011;7686;52.184;9.280;2023-03-07T07:42:35;0.88;;;0.52;;
15171;SDS011;7686;52.184;9.280;2023-03-07T07:45:02;0.77;;;0.55;;
15171;SDS011;7686;52.184;9.280;2023-03-07T07:47:29;0.77;;;0.65;;
15171;SDS011;7686;52.184;9.280;2023-03-07T07:49:55;3.35;;;0.82;;
15171;SDS011;7686;52.184;9.280;2023-03-07T07:52:22;1.73;;;0.73;;
15171;SDS011;7686;52.184;9.280;2023-03-07T07:54:50;1.23;;;0.60;;
15171;SDS011;7686;52.184;9.280;2023-03-07T07:57:16;0.75;;;0.43;;
15171;SDS011;7686;52.184;9.280;2023-03-07T07:59:43;1.10;;;0.60;;
15171;SDS011;7686;52.184;9.280;2023-03-07T08:02:11;1.10;;;0.60;;
15171;SDS011;7686;52.184;9.280;2023-03-07T08:04:41;2.15;;;0.50;;
15171;SDS011;7686;52.184;9.280;2023-03-07T08:07:08;3.90;;;0.88;;
15171;SDS011;7686;52.184;9.280;2023-03-07T08:09:34;2.63;;;0.60;;
15171;SDS011;7686;52.184;9.280;2023-03-07T08:12:01;1.55;;;0.70;;
15171;SDS011;7686;52.184;9.280;2023-03-07T08:14:28;4.30;;;0.60;;
15171;SDS011;7686;52.184;9.280;2023-03-07T08:16:54;4.68;;;0.90;;
15171;SDS011;7686;52.184;9.280;2023-03-07T08:19:21;3.80;;;0.90;;
15171;SDS011;7686;52.184;9.280;2023-03-07T08:21:47;1.15;;;0.75;;
15171;SDS011;7686;52.184;9.280;2023-03-07T08:24:14;1.55;;;0.60;;
15171;SDS011;7686;52.184;9.280;2023-03-07T08:26:41;1.20;;;0.52;;
15171;SDS011;7686;52.184;9.280;2023-03-07T08:29:08;2.40;;;0.70;;
15171;SDS011;7686;52.184;9.280;2023-03-07T08:31:34;1.27;;;0.68;;
15171;SDS011;7686;52.184;9.280;2023-03-07T08:34:01;2.33;;;0.75;;
15171;SDS011;7686;52.184;9.280;2023-03-07T08:36:28;2.95;;;0.57;;
15171;SDS011;7686;52.184;9.280;2023-03-07T08:38:54;3.00;;;0.75;;
15171;SDS011;7686;52.184;9.280;2023-03-07T08:41:21;1.85;;;0.80;;
15171;SDS011;7686;52.184;9.280;2023-03-07T08:43:48;2.53;;;0.88;;
15171;SDS011;7686;52.184;9.280;2023-03-07T08:46:15;1.42;;;0.65;;
15171;SDS011;7686;52.184;9.280;2023-03-07T08:48:42;0.77;;;0.60;;
15171;SDS011;7686;52.184;9.280;2023-03-07T08:51:09;1.65;;;0.73;;
15171;SDS011;7686;52.184;9.280;2023-03-07T08:53:40;2.30;;;0.70;;
15171;SDS011;7686;52.184;9.280;2023-03-07T08:56:12;3.30;;;0.82;;
15171;SDS011;7686;52.184;9.280;2023-03-07T08:58:40;1.83;;;0.73;;
15171;SDS011;7686;52.184;9.280;2023-03-07T09:01:06;1.17;;;0.75;;
15171;SDS011;7686;52.184;9.280;2023-03-07T09:03:33;1.67;;;0.75;;
15171;SDS011;7686;52.184;9.280;2023-03-07T09:06:01;2.33;;;0.80;;
15171;SDS011;7686;52.184;9.280;2023-03-07T09:08:29;2.92;;;0.90;;
15171;SDS011;7686;52.184;9.280;2023-03-07T09:10:57;2.40;;;0.80;;
15171;SDS011;7686;52.184;9.280;2023-03-07T09:13:25;3.97;;;0.93;;
15171;SDS011;7686;52.184;9.280;2023-03-07T09:15:52;2.60;;;0.70;;
15171;SDS011;7686;52.184;9.280;2023-03-07T09:18:19;0.50;;;0.50;;
15171;SDS011;7686;52.184;9.280;2023-03-07T09:20:48;3.17;;;0.90;;
15171;SDS011;7686;52.184;9.280;2023-03-07T09:23:14;2.15;;;0.70;;
15171;SDS011;7686;52.184;9.280;2023-03-07T09:25:41;4.10;;;0.85;;
15171;SDS011;7686;52.184;9.280;2023-03-07T09:28:09;2.55;;;0.90;;
15171;SDS011;7686;52.184;9.280;2023-03-07T09:30:36;2.95;;;0.80;;
15171;SDS011;7686;52.184;9.280;2023-03-07T09:33:03;3.22;;;0.95;;
15171;SDS011;7686;52.184;9.280;2023-03-07T09:35:30;1.50;;;0.80;;
15171;SDS011;7686;52.184;9.280;2023-03-07T09:37:56;2.13;;;0.80;;
15171;SDS011;7686;52.184;9.280;2023-03-07T09:40:23;4.47;;;0.90;;
15171;SDS011;7686;52.184;9.280;2023-03-07T09:51:41;3.00;;;0.85;;
15171;SDS011;7686;52.184;9.280;2023-03-07T09:56:46;1.65;;;0.65;;
15171;SDS011;7686;52.184;9.280;2023-03-07T09:59:33;1.45;;;0.90;;
15171;SDS011;7686;52.184;9.280;2023-03-07T10:07:54;0.57;;;0.57;;
15171;SDS011;7686;52.184;9.280;2023-03-07T10:10:25;1.40;;;0.88;;
15171;SDS011;7686;52.184;9.280;2023-03-07T10:15:46;1.85;;;0.60;;
15171;SDS011;7686;52.184;9.280;2023-03-07T10:18:29;3.42;;;0.88;;
15171;SDS011;7686;52.184;9.280;2023-03-07T10:26:56;2.25;;;1.13;;
15171;SDS011;7686;52.184;9.280;2023-03-07T10:29:35;2.80;;;1.30;;
15171;SDS011;7686;52.184;9.280;2023-03-07T10:32:36;2.55;;;1.23;;
15171;SDS011;7686;52.184;9.280;2023-03-07T10:37:55;1.70;;;1.15;;
15171;SDS011;7686;52.184;9.280;2023-03-07T10:40:28;3.72;;;1.17;;
15171;SDS011;7686;52.184;9.280;2023-03-07T10:42:59;1.15;;;0.90;;
15171;SDS011;7686;52.184;9.280;2023-03-07T10:45:28;2.33;;;1.30;;
15171;SDS011;7686;52.184;9.280;2023-03-07T10:47:59;2.08;;;1.00;;
15171;SDS011;7686;52.184;9.280;2023-03-07T10:50:45;1.67;;;1.00;;
15171;SDS011;7686;52.184;9.280;2023-03-07T10:56:07;1.85;;;1.00;;
15171;SDS011;7686;52.184;9.280;2023-03-07T10:58:36;1.27;;;0.90;;
15171;SDS011;7686;52.184;9.280;2023-03-07T11:08:54;1.25;;;0.88;;
15171;SDS011;7686;52.184;9.280;2023-03-07T11:11:22;0.90;;;0.90;;
15171;SDS011;7686;52.184;9.280;2023-03-07T11:14:07;0.98;;;0.80;;
15171;SDS011;7686;52.184;9.280;2023-03-07T11:16:47;1.83;;;1.10;;
15171;SDS011;7686;52.184;9.280;2023-03-07T11:19:49;1.60;;;1.00;;
15171;SDS011;7686;52.184;9.280;2023-03-07T11:22:17;2.03;;;0.77;;
15171;SDS011;7686;52.184;9.280;2023-03-07T11:25:00;1.67;;;0.90;;
15171;SDS011;7686;52.184;9.280;2023-03-07T11:27:33;2.05;;;0.70;;
15171;SDS011;7686;52.184;9.280;2023-03-07T11:32:53;0.80;;;0.70;;
15171;SDS011;7686;52.184;9.280;2023-03-07T11:35:32;1.48;;;0.90;;
15171;SDS011;7686;52.184;9.280;2023-03-07T11:38:19;1.00;;;0.70;;
15171;SDS011;7686;52.184;9.280;2023-03-07T11:46:39;0.93;;;0.75;;
15171;SDS011;7686;52.184;9.280;2023-03-07T11:57:29;0.80;;;0.70;;
15171;SDS011;7686;52.184;9.280;2023-03-07T12:08:17;0.80;;;0.70;;
15171;SDS011;7686;52.184;9.280;2023-03-07T12:27:22;2.50;;;1.70;;
15171;SDS011;7686;52.184;9.280;2023-03-07T12:30:12;3.25;;;1.60;;
15171;SDS011;7686;52.184;9.280;2023-03-07T12:32:45;2.75;;;1.60;;
15171;SDS011;7686;52.184;9.280;2023-03-07T12:35:16;4.13;;;1.85;;
15171;SDS011;7686;52.184;9.280;2023-03-07T12:38:05;2.67;;;1.70;;
15171;SDS011;7686;52.184;9.280;2023-03-07T12:40:53;2.70;;;1.70;;
15171;SDS011;7686;52.184;9.280;2023-03-07T12:43:28;3.08;;;1.70;;
15171;SDS011;7686;52.184;9.280;2023-03-07T12:46:22;2.42;;;1.63;;
15171;SDS011;7686;52.184;9.280;2023-03-07T12:48:58;2.47;;;1.60;;
15171;SDS011;7686;52.184;9.280;2023-03-07T12:51:33;2.85;;;1.65;;
15171;SDS011;7686;52.184;9.280;2023-03-07T12:54:07;3.90;;;1.60;;
15171;SDS011;7686;52.184;9.280;2023-03-07T12:56:42;2.85;;;1.40;;
15171;SDS011;7686;52.184;9.280;2023-03-07T12:59:30;2.88;;;1.60;;
15171;SDS011;7686;52.184;9.280;2023-03-07T13:02:04;3.03;;;1.63;;
15171;SDS011;7686;52.184;9.280;2023-03-07T13:04:37;4.57;;;1.67;;
15171;SDS011;7686;52.184;9.280;2023-03-07T13:07:12;2.28;;;1.48;;
15171;SDS011;7686;52.184;9.280;2023-03-07T13:09:43;3.15;;;1.60;;
15171;SDS011;7686;52.184;9.280;2023-03-07T13:14:42;2.50;;;1.30;;
15171;SDS011;7686;52.184;9.280;2023-03-07T13:17:53;2.03;;;1.35;;
15171;SDS011;7686;52.184;9.280;2023-03-07T13:20:03;2.30;;;1.50;;
15171;SDS011;7686;52.184;9.280;2023-03-07T13:22:59;2.35;;;1.50;;
15171;SDS011;7686;52.184;9.280;2023-03-07T13:25:41;2.70;;;1.50;;
15171;SDS011;7686;52.184;9.280;2023-03-07T13:28:30;2.15;;;1.50;;
15171;SDS011;7686;52.184;9.280;2023-03-07T13:31:10;2.08;;;1.30;;
15171;SDS011;7686;52.184;9.280;2023-03-07T13:33:42;2.40;;;1.50;;
15171;SDS011;7686;52.184;9.280;2023-03-07T13:36:51;1.75;;;1.20;;
15171;SDS011;7686;52.184;9.280;2023-03-07T13:39:33;2.33;;;1.45;;
15171;SDS011;7686;52.184;9.280;2023-03-07T13:48:03;2.00;;;1.20;;
15171;SDS011;7686;52.184;9.280;2023-03-07T13:50:38;2.03;;;1.20;;
15171;SDS011;7686;52.184;9.280;2023-03-07T13:53:33;2.05;;;1.33;;
15171;SDS011;7686;52.184;9.280;2023-03-07T13:58:46;1.67;;;1.20;;
15171;SDS011;7686;52.184;9.280;2023-03-07T14:01:21;1.30;;;1.10;;
15171;SDS011;7686;52.184;9.280;2023-03-07T14:04:02;2.25;;;1.30;;
15171;SDS011;7686;52.184;9.280;2023-03-07T14:07:21;1.48;;;1.10;;
15171;SDS011;7686;52.184;9.280;2023-03-07T14:09:57;2.88;;;1.48;;
15171;SDS011;7686;52.184;9.280;2023-03-07T14:15:26;1.33;;;1.10;;
15171;SDS011;7686;52.184;9.280;2023-03-07T14:21:01;1.38;;;1.10;;
15171;SDS011;7686;52.184;9.280;2023-03-07T14:26:20;2.53;;;1.30;;
15171;SDS011;7686;52.184;9.280;2023-03-07T14:29:13;1.67;;;1.08;;
15171;SDS011;7686;52.184;9.280;2023-03-07T14:31:41;1.52;;;1.00;;
15171;SDS011;7686;52.184;9.280;2023-03-07T14:34:16;2.97;;;1.10;;
15171;SDS011;7686;52.184;9.280;2023-03-07T14:37:11;0.98;;;0.90;;
15171;SDS011;7686;52.184;9.280;2023-03-07T14:39:45;1.50;;;1.10;;
15171;SDS011;7686;52.184;9.280;2023-03-07T14:42:26;1.00;;;0.90;;
15171;SDS011;7686;52.184;9.280;2023-03-07T14:45:15;1.17;;;0.90;;
15171;SDS011;7686;52.184;9.280;2023-03-07T14:50:20;1.17;;;1.00;;
15171;SDS011;7686;52.184;9.280;2023-03-07T14:52:53;0.95;;;0.80;;
15171;SDS011;7686;52.184;9.280;2023-03-07T14:55:24;1.05;;;0.93;;
15171;SDS011;7686;52.184;9.280;2023-03-07T14:57:56;1.23;;;0.80;;
15171;SDS011;7686;52.184;9.280;2023-03-07T15:00:24;1.08;;;0.90;;
15171;SDS011;7686;52.184;9.280;2023-03-07T15:02:55;1.88;;;1.10;;
15171;SDS011;7686;52.184;9.280;2023-03-07T15:05:24;1.17;;;0.70;;
15171;SDS011;7686;52.184;9.280;2023-03-07T15:07:52;0.98;;;0.88;;
15171;SDS011;7686;52.184;9.280;2023-03-07T15:10:21;1.65;;;0.93;;
15171;SDS011;7686;52.184;9.280;2023-03-07T15:13:15;1.02;;;0.90;;
15171;SDS011;7686;52.184;9.280;2023-03-07T15:15:50;0.90;;;0.80;;
15171;SDS011;7686;52.184;9.280;2023-03-07T15:18:21;1.48;;;0.90;;
15171;SDS011;7686;52.184;9.280;2023-03-07T15:20:55;0.85;;;0.82;;
15171;SDS011;7686;52.184;9.280;2023-03-07T15:23:24;0.85;;;0.80;;
15171;SDS011;7686;52.184;9.280;2023-03-07T15:26:01;0.88;;;0.80;;
15171;SDS011;7686;52.184;9.280;2023-03-07T15:28:36;1.20;;;1.00;;
15171;SDS011;7686;52.184;9.280;2023-03-07T15:31:06;1.58;;;1.00;;
15171;SDS011;7686;52.184;9.280;2023-03-07T15:33:34;0.80;;;0.80;;
15171;SDS011;7686;52.184;9.280;2023-03-07T15:36:05;0.90;;;0.75;;
15171;SDS011;7686;52.184;9.280;2023-03-07T15:38:40;1.88;;;0.90;;
15171;SDS011;7686;52.184;9.280;2023-03-07T15:41:24;1.10;;;0.80;;
15171;SDS011;7686;52.184;9.280;2023-03-07T15:46:49;2.63;;;0.90;;
15171;SDS011;7686;52.184;9.280;2023-03-07T15:51:52;1.00;;;0.80;;
15171;SDS011;7686;52.184;9.280;2023-03-07T15:54:31;0.98;;;0.80;;
15171;SDS011;7686;52.184;9.280;2023-03-07T15:57:03;0.88;;;0.70;;
15171;SDS011;7686;52.184;9.280;2023-03-07T16:04:55;1.60;;;0.90;;
15171;SDS011;7686;52.184;9.280;2023-03-07T16:07:22;0.90;;;0.80;;
15171;SDS011;7686;52.184;9.280;2023-03-07T16:09:49;1.90;;;0.85;;
15171;SDS011;7686;52.184;9.280;2023-03-07T16:12:16;1.90;;;0.75;;
15171;SDS011;7686;52.184;9.280;2023-03-07T16:14:45;1.42;;;0.80;;
15171;SDS011;7686;52.184;9.280;2023-03-07T16:20:00;0.88;;;0.65;;
15171;SDS011;7686;52.184;9.280;2023-03-07T16:22:29;1.15;;;0.85;;
15171;SDS011;7686;52.184;9.280;2023-03-07T16:24:56;1.83;;;0.80;;
15171;SDS011;7686;52.184;9.280;2023-03-07T16:27:23;3.10;;;1.10;;
15171;SDS011;7686;52.184;9.280;2023-03-07T16:29:52;1.05;;;0.80;;
15171;SDS011;7686;52.184;9.280;2023-03-07T16:32:20;1.00;;;0.80;;
15171;SDS011;7686;52.184;9.280;2023-03-07T16:34:47;2.08;;;0.70;;
15171;SDS011;7686;52.184;9.280;2023-03-07T16:37:15;1.23;;;0.73;;
15171;SDS011;7686;52.184;9.280;2023-03-07T16:39:42;1.48;;;0.80;;
15171;SDS011;7686;52.184;9.280;2023-03-07T16:42:16;2.10;;;0.80;;
15171;SDS011;7686;52.184;9.280;2023-03-07T16:44:46;1.20;;;0.70;;
15171;SDS011;7686;52.184;9.280;2023-03-07T16:47:14;1.60;;;0.90;;
15171;SDS011;7686;52.184;9.280;2023-03-07T16:49:42;1.40;;;0.80;;
15171;SDS011;7686;52.184;9.280;2023-03-07T16:52:10;0.82;;;0.73;;
15171;SDS011;7686;52.184;9.280;2023-03-07T16:54:38;1.10;;;0.75;;
15171;SDS011;7686;52.184;9.280;2023-03-07T16:57:05;1.80;;;0.70;;
15171;SDS011;7686;52.184;9.280;2023-03-07T16:59:36;1.20;;;0.73;;
15171;SDS011;7686;52.184;9.280;2023-03-07T17:02:17;1.40;;;0.80;;
15171;SDS011;7686;52.184;9.280;2023-03-07T17:04:47;1.10;;;0.70;;
15171;SDS011;7686;52.184;9.280;2023-03-07T17:07:14;1.23;;;0.68;;
15171;SDS011;7686;52.184;9.280;2023-03-07T17:09:42;0.70;;;0.57;;
15171;SDS011;7686;52.184;9.280;2023-03-07T17:12:10;0.60;;;0.60;;
15171;SDS011;7686;52.184;9.280;2023-03-07T17:14:37;1.00;;;0.75;;
15171;SDS011;7686;52.184;9.280;2023-03-07T17:17:05;1.60;;;0.73;;
15171;SDS011;7686;52.184;9.280;2023-03-07T17:19:32;1.35;;;0.80;;